Data for 05/22/2014

Time Sea-Level Adjusted Pressure Absolute Pressure Temperature Relative Humidity Dew Point   
(mb) (inHg) (mb) (inHg) (C) (F) (%) (C) (F)
00:05 1020 30.12 849 25.07 13.1 55.6 62 6 42.8
00:10 1020 30.12 849 25.07 13 55.4 63 6.1 42.9
00:15 1020 30.12 849 25.07 13 55.3 62 6 42.7
00:20 1020 30.12 849 25.07 12.9 55.2 63 6.1 43
00:25 1020 30.12 849 25.07 12.7 54.8 63 5.9 42.7
00:30 1020 30.12 849 25.07 12.6 54.6 63 5.7 42.3
00:35 1020 30.12 849 25.07 12.5 54.4 63 5.8 42.4
00:40 1020 30.12 849 25.07 12.4 54.3 62 5.4 41.7
00:45 1020 30.12 849 25.07 12.5 54.6 61 5.3 41.5
00:50 1020 30.12 849 25.07 12.7 54.8 63 5.8 42.5
00:55 1020 30.12 850 25.1 12.4 54.4 61 5.2 41.3
01:00 1020 30.12 850 25.1 12.5 54.6 61 5.2 41.4
01:05 1020 30.12 849 25.07 12.7 54.8 60 5.2 41.4
01:10 1020 30.12 850 25.1 12.4 54.3 63 5.6 42
01:15 1020 30.12 850 25.1 11.6 52.8 67 5.6 42.1
01:20 1020 30.12 850 25.1 11 51.8 65 4.7 40.5
01:25 1020 30.12 850 25.1 10.7 51.3 67 4.9 40.9
01:30 1020 30.12 849 25.07 10.4 50.8 67 4.7 40.5
01:35 1020 30.12 849 25.07 10.4 50.7 65 4.2 39.6
01:40 1020 30.12 849 25.07 10.5 50.9 65 4.2 39.6
01:45 1020 30.12 849 25.07 10.5 50.9 63 3.9 39
01:50 1020 30.12 849 25.07 10.6 51.1 63 3.9 38.9
01:55 1020 30.12 849 25.07 10.6 51.1 63 3.8 38.9
02:00 1020 30.12 849 25.07 10.7 51.2 63 4 39.2
02:05 1020 30.12 849 25.07 10.7 51.3 64 4.2 39.6
02:10 1020 30.12 849 25.07 10.5 51 65 4.3 39.7
02:15 1020 30.12 850 25.1 10.4 50.7 65 4.2 39.6
02:20 1020 30.12 850 25.1 10.3 50.6 65 4 39.3
02:25 1020 30.12 850 25.1 10.4 50.8 63 3.8 38.9
02:30 1020 30.12 850 25.1 10.6 51 63 3.8 38.8
02:35 1020 30.12 850 25.1 10.5 50.9 63 3.8 38.9
02:40 1020 30.12 850 25.1 10.3 50.5 64 3.8 38.8
02:45 1020 30.12 850 25.1 10 50 67 4.3 39.7
02:50 1020 30.12 850 25.1 9.8 49.6 65 3.6 38.4
02:55 1020 30.12 850 25.1 10 50 64 3.4 38.2
03:00 1020 30.12 849 25.07 9.9 49.9 64 3.4 38.2
03:05 1020 30.12 849 25.07 9.7 49.5 65 3.4 38.2
03:10 1020 30.12 849 25.07 9.5 49 66 3.4 38.2
03:15 1020 30.12 849 25.07 9.3 48.8 66 3.3 37.9
03:20 1020 30.12 849 25.07 9.3 48.7 66 3.3 37.9
03:25 1020 30.12 850 25.1 9.3 48.8 65 3.2 37.7
03:30 1020 30.12 850 25.1 9.8 49.6 62 3 37.4
03:35 1020 30.12 850 25.1 9.9 49.8 63 3.1 37.6
03:40 1021 30.15 850 25.1 9.8 49.7 61 2.7 36.9
03:45 1021 30.15 850 25.1 10.2 50.4 57 2.2 36
03:50 1021 30.15 850 25.1 10 50.1 58 2.3 36.1
03:55 1021 30.15 850 25.1 9.6 49.3 61 2.4 36.3
04:00 1021 30.15 850 25.1 9.3 48.7 61 2.2 36
04:05 1021 30.15 850 25.1 9.1 48.3 62 2.1 35.9
04:10 1021 30.15 850 25.1 9.3 48.7 60 2.1 35.7
04:15 1021 30.15 850 25.1 9.3 48.8 62 2.4 36.3
04:20 1021 30.15 850 25.1 9 48.3 63 2.4 36.3
04:25 1021 30.15 850 25.1 8.7 47.7 63 2.1 35.8
04:30 1021 30.15 850 25.1 8.6 47.4 63 2 35.6
04:35 1021 30.15 850 25.1 8.6 47.4 62 1.8 35.2
04:40 1021 30.15 850 25.1 8.6 47.4 64 2.2 35.9
04:45 1021 30.15 850 25.1 8.5 47.4 64 2.2 35.9
04:50 1021 30.15 850 25.1 8.9 48 64 2.5 36.4
04:55 1021 30.15 850 25.1 9 48.2 66 3 37.4
05:00 1021 30.15 850 25.1 9.2 48.6 66 3.1 37.6
05:05 1021 30.15 850 25.1 9.1 48.4 66 3.1 37.6
05:10 1021 30.15 850 25.1 8.8 47.9 67 3.2 37.7
05:15 1021 30.15 850 25.1 8.7 47.6 69 3.3 37.9
05:20 1021 30.15 850 25.1 8.6 47.4 70 3.4 38.1
05:25 1021 30.15 850 25.1 8.5 47.2 70 3.2 37.8
05:30 1021 30.15 851 25.13 8.4 47.1 70 3.3 37.9
05:35 1021 30.15 851 25.13 8.4 47.2 69 3.2 37.7
05:40 1021 30.15 851 25.13 8.5 47.4 68 3.1 37.5
05:45 1021 30.15 851 25.13 8.8 47.8 68 3.2 37.8
05:50 1022 30.18 851 25.13 9 48.2 67 3.3 37.9
05:55 1022 30.18 851 25.13 9.2 48.6 66 3.3 38
06:00 1022 30.18 851 25.13 9.4 48.9 65 3.3 37.9
06:05 1022 30.18 851 25.13 9.5 49.2 65 3.4 38.1
06:10 1022 30.18 851 25.13 9.8 49.6 65 3.5 38.2
06:15 1022 30.18 851 25.13 10 50 64 3.5 38.3
06:20 1022 30.18 851 25.13 10.2 50.4 63 3.4 38.2
06:25 1022 30.18 851 25.13 10.3 50.6 62 3.5 38.3
06:30 1022 30.18 851 25.13 10.6 51 61 3.5 38.3
06:35 1022 30.18 851 25.13 10.9 51.6 60 3.5 38.2
06:40 1022 30.18 851 25.13 11.3 52.4 59 3.7 38.6
06:45 1022 30.18 851 25.13 11.8 53.3 57 3.7 38.6
06:50 1022 30.18 851 25.13 12.3 54.2 55 3.6 38.5
06:55 1022 30.18 851 25.13 12.4 54.4 56 4 39.2
07:00 1022 30.18 851 25.13 13 55.4 55 4.3 39.7
07:05 1022 30.18 851 25.13 13.8 56.9 53 4.4 39.9
07:10 1022 30.18 851 25.13 14 57.1 52 4.4 39.9
07:15 1022 30.18 851 25.13 14.5 58.1 51 4.5 40.2
07:20 1022 30.18 851 25.13 14.6 58.3 51 4.5 40.2
07:25 1022 30.18 851 25.13 14.7 58.4 49 4.2 39.5
07:30 1022 30.18 851 25.13 14.8 58.6 49 4.1 39.4
07:35 1022 30.18 851 25.13 15.4 59.7 45 3.7 38.7
07:40 1022 30.18 851 25.13 15.7 60.2 45 4 39.2
07:45 1022 30.18 851 25.13 15.5 60 44 3.5 38.4
07:50 1022 30.18 851 25.13 16.2 61.1 43 3.7 38.7
07:55 1022 30.18 851 25.13 16.3 61.4 44 4.1 39.4
08:00 1022 30.18 851 25.13 16.6 61.8 43 3.9 39.1
08:05 1022 30.18 851 25.13 16.7 62.1 41 3.7 38.7
08:10 1022 30.18 851 25.13 17.1 62.7 40 3.5 38.3
08:15 1022 30.18 851 25.13 16.7 62 41 3.6 38.5
08:20 1022 30.18 851 25.13 17 62.5 41 3.7 38.7
08:25 1022 30.18 851 25.13 17.2 62.9 40 3.7 38.6
08:30 1022 30.18 851 25.13 17.4 63.3 38 3.2 37.7
08:35 1022 30.18 851 25.13 17.3 63.2 41 4 39.3
08:40 1022 30.18 851 25.13 17.9 64.3 38 3.5 38.2
08:45 1022 30.18 851 25.13 18.2 64.7 39 4.2 39.6
08:50 1022 30.18 851 25.13 18.3 64.9 39 4.2 39.6
08:55 1022 30.18 851 25.13 17.3 63.1 41 4.1 39.5
09:00 1022 30.18 851 25.13 17.4 63.3 40 3.8 38.8
09:05 1022 30.18 851 25.13 18 64.5 39 3.9 39.1
09:10 1022 30.18 851 25.13 18.2 64.8 38 3.8 38.9
09:15 1022 30.18 851 25.13 18.8 65.8 37 4 39.1
09:20 1022 30.18 851 25.13 18.9 65.9 37 4 39.3
09:25 1022 30.18 851 25.13 18.9 65.9 37 4 39.2
09:30 1022 30.18 851 25.13 19.3 66.8 36 3.9 39.1
09:35 1022 30.18 851 25.13 19.3 66.8 37 4.2 39.6
09:40 1022 30.18 851 25.13 19.5 67.1 37 4.6 40.3
09:45 1022 30.18 851 25.13 19.7 67.4 37 4.8 40.7
09:50 1022 30.18 851 25.13 19.2 66.5 40 5.3 41.5
09:55 1022 30.18 851 25.13 18.9 66 40 5.1 41.2
10:00 1022 30.18 851 25.13 19.6 67.2 37 4.6 40.3
10:05 1022 30.18 851 25.13 20.2 68.3 37 5 41
10:10 1021 30.15 851 25.13 19.9 67.8 41 6.4 43.6
10:15 1021 30.15 851 25.13 18.9 66 42 5.8 42.4
10:20 1021 30.15 851 25.13 19 66.1 42 5.9 42.6
10:25 1021 30.15 851 25.13 19.2 66.6 42 6.1 43
10:30 1021 30.15 851 25.13 20.2 68.4 37 5.3 41.5
10:35 1021 30.15 851 25.13 20.5 68.8 37 5.6 42
10:40 1021 30.15 851 25.13 20.6 69 36 5.3 41.5
10:45 1021 30.15 851 25.13 20.5 68.9 36 5 40.9
10:50 1021 30.15 851 25.13 19.6 67.3 36 4.2 39.6
10:55 1021 30.15 851 25.13 20.3 68.5 35 4.5 40.1
11:00 1021 30.15 851 25.13 21 69.7 33 4.4 39.9
11:05 1021 30.15 851 25.13 21.2 70.2 35 5.5 41.9
11:10 1021 30.15 850 25.1 21.4 70.5 33 4.6 40.2
11:15 1021 30.15 850 25.1 21.2 70.1 35 5.4 41.7
11:20 1021 30.15 850 25.1 19.9 67.9 39 5.8 42.4
11:25 1021 30.15 850 25.1 20.8 69.4 33 4.2 39.5
11:30 1021 30.15 850 25.1 21.3 70.3 33 4.6 40.3
11:35 1021 30.15 850 25.1 21.4 70.5 34 5.1 41.1
11:40 1021 30.15 850 25.1 21.8 71.2 35 5.8 42.5
11:45 1021 30.15 850 25.1 21.8 71.3 33 4.9 40.8
11:50 1021 30.15 850 25.1 21.7 71.1 33 4.7 40.5
11:55 1021 30.15 850 25.1 22.1 71.8 33 5.3 41.5
12:00 1021 30.15 850 25.1 22.3 72.1 32 5 41.1
12:05 1021 30.15 850 25.1 22.2 72 31 4.4 39.9
12:10 1021 30.15 850 25.1 22.4 72.2 31 4.5 40.1
12:15 1021 30.15 850 25.1 22.6 72.7 32 5.1 41.3
12:20 1021 30.15 850 25.1 22.4 72.3 31 4.4 40
12:25 1021 30.15 850 25.1 22.7 72.8 28 3.4 38.2
12:30 1021 30.15 850 25.1 22.8 73 28 3.5 38.3
12:35 1021 30.15 850 25.1 23.1 73.5 26 2.7 36.9
12:40 1021 30.15 850 25.1 23 73.4 27 3 37.3
12:45 1021 30.15 850 25.1 23.1 73.7 26 3 37.4
12:50 1021 30.15 850 25.1 23.2 73.8 26 2.9 37.2
12:55 1021 30.15 850 25.1 23.5 74.3 26 2.9 37.3
13:00 1021 30.15 850 25.1 23.7 74.6 25 2.5 36.6
13:05 1021 30.15 850 25.1 23.6 74.5 26 3.3 38
13:10 1021 30.15 850 25.1 23.9 74.9 26 3.5 38.3
13:15 1020 30.12 850 25.1 24 75.1 26 3.6 38.5
13:20 1020 30.12 850 25.1 23.9 75 25 3 37.3
13:25 1020 30.12 850 25.1 24.2 75.5 26 3.6 38.5
13:30 1020 30.12 850 25.1 24 75.3 26 3.4 38.2
13:35 1020 30.12 850 25.1 24 75.1 25 2.7 36.8
13:40 1020 30.12 850 25.1 24 75.2 25 3 37.4
13:45 1020 30.12 850 25.1 24.2 75.6 24 2.4 36.3
13:50 1020 30.12 850 25.1 23.1 73.5 27 3.2 37.8
13:55 1020 30.12 850 25.1 22.4 72.3 27 2.9 37.2
14:00 1020 30.12 850 25.1 23.6 74.5 25 2.8 37
14:05 1020 30.12 850 25.1 23.9 74.9 26 3.7 38.6
14:10 1020 30.12 850 25.1 23.9 75 25 2.8 37
14:15 1020 30.12 849 25.07 24 75.2 25 3 37.4
14:20 1020 30.12 849 25.07 23.6 74.5 25 2.5 36.6
14:25 1020 30.12 849 25.07 23.4 74.1 25 2.5 36.5
14:30 1020 30.12 849 25.07 22.9 73.1 25 2.3 36.1
14:35 1020 30.12 849 25.07 23.2 73.8 25 2.4 36.2
14:40 1020 30.12 849 25.07 24.4 75.8 24 3 37.4
14:45 1020 30.12 849 25.07 24.4 75.8 24 2.5 36.5
14:50 1020 30.12 849 25.07 24.6 76.2 23 2.3 36.2
14:55 1020 30.12 849 25.07 24.8 76.6 22 1.8 35.2
15:00 1020 30.12 849 25.07 23.7 74.7 24 2.1 35.9
15:05 1020 30.12 849 25.07 24.6 76.2 23 2.1 35.7
15:10 1020 30.12 849 25.07 25.1 77.1 22 2.2 35.9
15:15 1020 30.12 849 25.07 24.5 76 22 1.4 34.5
15:20 1020 30.12 849 25.07 24.2 75.5 22 1.5 34.7
15:25 1020 30.12 849 25.07 24.5 76.1 20 0.6 33.1
15:30 1020 30.12 849 25.07 25.4 77.7 21 1.8 35.2
15:35 1020 30.12 849 25.07 25.2 77.4 22 1.9 35.5
15:40 1020 30.12 849 25.07 25 77 21 1.4 34.5
15:45 1020 30.12 849 25.07 24 75.3 22 1 33.8
15:50 1020 30.12 849 25.07 24.5 76.1 20 0.1 32.1
15:55 1020 30.12 849 25.07 24.6 76.4 21 1.2 34.1
16:00 1020 30.12 849 25.07 24.2 75.5 20 -0.1 31.8
16:05 1020 30.12 849 25.07 24.2 75.6 18 -1 30.1
16:10 1020 30.12 849 25.07 24.8 76.6 19 -0.4 31.4
16:15 1020 30.12 849 25.07 24.7 76.5 20 0.8 33.4
16:20 1020 30.12 849 25.07 24.8 76.6 19 -0.3 31.5
16:25 1020 30.12 849 25.07 24.3 75.8 19 -0.2 31.6
16:30 1020 30.12 849 25.07 24.2 75.5 18 -1.4 29.5
16:35 1020 30.12 849 25.07 24.2 75.6 19 -0.9 30.4
16:40 1020 30.12 849 25.07 25.5 77.8 18 -0.7 30.8
16:45 1020 30.12 849 25.07 25.3 77.5 17 -1 30.3
16:50 1020 30.12 849 25.07 24.5 76.1 18 -0.8 30.6
16:55 1020 30.12 849 25.07 23.9 75 18 -1.5 29.3
17:00 1020 30.12 849 25.07 23.9 75 18 -1.4 29.4
17:05 1020 30.12 849 25.07 24.5 76.1 17 -2 28.3
17:10 1020 30.12 849 25.07 24.5 76.1 18 -1.5 29.3
17:15 1019 30.09 849 25.07 24.6 76.3 16 -2.9 26.7
17:20 1019 30.09 849 25.07 24.9 76.8 17 -1.6 29.2
17:25 1019 30.09 849 25.07 24.1 75.4 15 -3.5 25.6
17:30 1019 30.09 849 25.07 24.3 75.7 17 -2.1 28.2
17:35 1019 30.09 849 25.07 24.7 76.4 17 -1.5 29.4
17:40 1019 30.09 849 25.07 25 76.9 16 -2.4 27.6
17:45 1019 30.09 849 25.07 24.6 76.3 17 -2.1 28.3
17:50 1019 30.09 848 25.04 24.2 75.5 18 -1.6 29
17:55 1019 30.09 848 25.04 24 75.3 17 -2.6 27.3
18:00 1019 30.09 848 25.04 24.1 75.4 17 -2.5 27.5
18:05 1019 30.09 848 25.04 24.7 76.5 15 -3 26.5
18:10 1019 30.09 848 25.04 24.5 76.2 16 -2.7 27.2
18:15 1019 30.09 848 25.04 24.1 75.4 16 -2.7 27.2
18:20 1019 30.09 848 25.04 23.6 74.4 17 -2.6 27.3
18:25 1019 30.09 848 25.04 23.3 74 18 -2.3 27.8
18:30 1019 30.09 848 25.04 23.1 73.7 18 -2.5 27.5
18:35 1019 30.09 848 25.04 23.1 73.5 17 -2.8 27
18:40 1019 30.09 848 25.04 23.1 73.5 18 -2.3 27.9
18:45 1019 30.09 848 25.04 23.2 73.8 17 -2.9 26.7
18:50 1019 30.09 848 25.04 23 73.3 19 -2 28.4
18:55 1019 30.09 848 25.04 22.8 73.1 17 -3 26.6
19:00 1019 30.09 848 25.04 22.7 72.8 18 -2.7 27.2
19:05 1019 30.09 848 25.04 22.7 72.8 18 -3 26.5
19:10 1019 30.09 848 25.04 22.7 72.8 18 -2.9 26.7
19:15 1019 30.09 848 25.04 22.6 72.7 18 -2.9 26.8
19:20 1019 30.09 848 25.04 22.5 72.6 18 -2.6 27.3
19:25 1019 30.09 848 25.04 22.4 72.4 19 -2.4 27.8
19:30 1019 30.09 848 25.04 22.4 72.2 18 -2.8 26.9
19:35 1019 30.09 848 25.04 22.3 72.1 19 -2.4 27.6
19:40 1019 30.09 849 25.07 22 71.7 23 0.3 32.5
19:45 1019 30.09 849 25.07 21.7 71 23 0.1 32.2
19:50 1019 30.09 849 25.07 21.2 70.2 29 2.9 37.2
19:55 1019 30.09 849 25.07 20.1 68.2 33 3.6 38.4
20:00 1019 30.09 849 25.07 19.6 67.2 34 3.3 38
20:05 1019 30.09 849 25.07 19.3 66.7 35 3.7 38.7
20:10 1020 30.12 849 25.07 18.7 65.6 38 4.1 39.3
20:15 1020 30.12 849 25.07 18.1 64.6 39 4 39.1
20:20 1020 30.12 849 25.07 17.8 64 40 4 39.2
20:25 1020 30.12 849 25.07 17.5 63.5 40 3.9 39
20:30 1020 30.12 849 25.07 17.3 63.1 40 3.7 38.7
20:35 1020 30.12 849 25.07 17 62.6 40 3.3 38
20:40 1020 30.12 849 25.07 16.7 62.1 39 2.8 37
20:45 1020 30.12 849 25.07 16.8 62.2 37 2.3 36.2
20:50 1020 30.12 849 25.07 16.9 62.4 37 2.4 36.3
20:55 1020 30.12 849 25.07 16.5 61.8 40 3.1 37.6
21:00 1020 30.12 849 25.07 15.9 60.7 42 3.2 37.7
21:05 1020 30.12 849 25.07 15.4 59.8 42 2.8 37
21:10 1020 30.12 849 25.07 15.6 60 40 2.3 36.1
21:15 1020 30.12 849 25.07 15.8 60.4 41 2.6 36.6
21:20 1020 30.12 849 25.07 15.5 59.9 42 2.7 36.9
21:25 1020 30.12 849 25.07 15.1 59.2 42 2.4 36.3
21:30 1020 30.12 849 25.07 15 59.1 43 2.7 36.9
21:35 1020 30.12 849 25.07 14.8 58.7 45 3.1 37.5
21:40 1020 30.12 849 25.07 14.4 57.9 47 3.3 37.9
21:45 1020 30.12 849 25.07 14.4 58 47 3.2 37.8
21:50 1020 30.12 849 25.07 14.6 58.2 47 3.6 38.4
21:55 1020 30.12 849 25.07 14.7 58.4 47 3.6 38.4
22:00 1020 30.12 849 25.07 14.6 58.2 48 3.9 38.9
22:05 1020 30.12 849 25.07 14.6 58.3 48 3.8 38.8
22:10 1020 30.12 849 25.07 14.8 58.6 47 3.8 38.8
22:15 1020 30.12 849 25.07 15 59.1 47 3.9 39
22:20 1020 30.12 849 25.07 15.1 59.1 47 4 39.2
22:25 1020 30.12 849 25.07 14.6 58.3 49 4.2 39.5
22:30 1020 30.12 849 25.07 14.2 57.5 52 4.4 40
22:35 1020 30.12 849 25.07 13.7 56.6 52 4.1 39.4
22:40 1020 30.12 849 25.07 13.8 56.8 51 4 39.1
22:45 1020 30.12 849 25.07 14.2 57.5 49 3.7 38.6
22:50 1020 30.12 849 25.07 14.4 57.9 53 4.9 40.8
22:55 1020 30.12 849 25.07 14.4 57.9 49 3.8 38.8
23:00 1020 30.12 849 25.07 14.5 58.1 50 4.2 39.6
23:05 1020 30.12 849 25.07 14.4 57.9 51 4.5 40.1
23:10 1020 30.12 849 25.07 14.2 57.6 52 4.7 40.4
23:15 1020 30.12 849 25.07 14.3 57.8 52 4.8 40.6
23:20 1020 30.12 850 25.1 14.3 57.7 53 4.9 40.8
23:25 1020 30.12 850 25.1 14.2 57.6 53 4.8 40.7
23:30 1020 30.12 850 25.1 14.1 57.4 54 4.9 40.9
23:35 1020 30.12 850 25.1 14 57.1 54 5 41
23:40 1020 30.12 850 25.1 13.8 56.9 55 5 41
23:45 1020 30.12 850 25.1 13.6 56.5 57 5.3 41.6
23:50 1021 30.15 850 25.1 13.5 56.2 59 5.6 42.1
23:55 1021 30.15 850 25.1 13.5 56.3 56 4.9 40.9
24:00 1020 30.12 850 25.1 13.8 56.8 53 4.4 40